Time;durP1;ratioP1;P1;durP2;ratioP2;P2;SDS_P1;SDS_P2;PMS_P1;PMS_P2;Temp;Humidity;BMP_temperature;BMP_pressure;BME280_temperature;BME280_humidity;BME280_pressure;Samples;Min_cycle;Max_cycle;Signal;HPM_P1;HPM_P2
2023/01/17 00:02:06;;;;;;;2.17;0.80;;;4.20;99.90;;;;;;5092986;28;20036;-60
2023/01/17 00:10:06;;;;;;;2.90;0.70;;;4.20;99.90;;;;;;5051333;28;20049;-60
2023/01/17 00:12:32;;;;;;;4.47;0.98;;;4.20;99.90;;;;;;5052162;28;20476;-60
2023/01/17 00:14:59;;;;;;;3.90;0.80;;;4.30;99.90;;;;;;5056986;28;20049;-61
2023/01/17 00:17:27;;;;;;;4.13;0.80;;;4.30;99.90;;;;;;5043688;28;20037;-62
2023/01/17 01:35:08;;;;;;;3.83;0.55;;;3.70;99.90;;;;;;5048565;28;20514;-62
2023/01/17 01:37:33;;;;;;;2.20;0.50;;;3.60;99.90;;;;;;5049958;28;20072;-62
2023/01/17 01:39:59;;;;;;;2.45;0.68;;;3.60;99.90;;;;;;5049226;28;20116;-61
2023/01/17 01:42:25;;;;;;;2.83;0.60;;;3.60;99.90;;;;;;5052887;28;20041;-64
2023/01/17 01:44:52;;;;;;;3.83;0.57;;;3.60;99.90;;;;;;5046433;28;20029;-61
2023/01/17 01:47:32;;;;;;;6.38;0.63;;;3.50;99.90;;;;;;5049589;28;20037;-61
2023/01/17 01:50:01;;;;;;;1.98;0.43;;;3.60;99.90;;;;;;5047727;28;20033;-65
2023/01/17 01:52:30;;;;;;;1.70;0.22;;;3.50;99.90;;;;;;5047576;28;20033;-60
2023/01/17 01:55:16;;;;;;;1.30;0.35;;;3.50;99.90;;;;;;5047903;28;20033;-61
2023/01/17 01:57:47;;;;;;;3.33;0.47;;;3.40;99.90;;;;;;5052114;28;20029;-61
2023/01/17 02:00:22;;;;;;;1.67;0.50;;;3.30;99.90;;;;;;5051546;28;20407;-60
2023/01/17 02:02:50;;;;;;;1.42;0.47;;;3.40;99.90;;;;;;5084962;28;20044;-63
2023/01/17 02:05:19;;;;;;;2.72;0.47;;;3.30;99.90;;;;;;5044642;28;20490;-61
2023/01/17 02:07:53;;;;;;;5.65;0.70;;;3.30;99.90;;;;;;5059154;28;20391;-61
2023/01/17 02:10:20;;;;;;;1.67;0.80;;;3.30;99.90;;;;;;5053145;28;20120;-63
2023/01/17 02:12:46;;;;;;;4.50;0.90;;;3.30;99.90;;;;;;5051397;28;20028;-60
2023/01/17 02:15:12;;;;;;;2.65;0.77;;;3.20;99.90;;;;;;5056622;28;20041;-64
2023/01/17 02:18:07;;;;;;;2.55;0.63;;;3.20;99.90;;;;;;5051722;28;20037;-60
2023/01/17 02:20:33;;;;;;;3.28;0.40;;;3.20;99.90;;;;;;5053506;28;20083;-62
2023/01/17 02:23:09;;;;;;;3.05;0.55;;;3.20;99.90;;;;;;5057627;28;20064;-61
2023/01/17 02:25:53;;;;;;;2.38;0.40;;;3.20;99.90;;;;;;5055266;28;20060;-61
2023/01/17 02:28:43;;;;;;;0.80;0.50;;;3.20;99.90;;;;;;5051015;28;20032;-61
2023/01/17 02:31:25;;;;;;;2.72;0.60;;;3.20;99.90;;;;;;5061740;28;20071;-61
2023/01/17 02:34:02;;;;;;;3.55;0.73;;;3.20;99.90;;;;;;5060523;28;20060;-61
2023/01/17 02:36:30;;;;;;;3.78;0.90;;;3.20;99.90;;;;;;5049804;28;20041;-62
2023/01/17 02:39:11;;;;;;;2.75;0.50;;;3.20;99.90;;;;;;5052259;28;20098;-62
2023/01/17 02:41:41;;;;;;;2.13;0.50;;;3.80;99.90;;;;;;5057938;28;20033;-63
2023/01/17 02:44:09;;;;;;;3.95;0.77;;;3.20;99.90;;;;;;5051470;28;20079;-62
2023/01/17 02:46:55;;;;;;;2.75;0.63;;;3.20;99.90;;;;;;5058599;28;20040;-62
2023/01/17 02:49:25;;;;;;;2.92;0.50;;;3.20;99.90;;;;;;5051642;28;20067;-65
2023/01/17 02:52:29;;;;;;;3.75;0.57;;;3.20;99.90;;;;;;5052880;28;20040;-63
2023/01/17 02:55:19;;;;;;;3.28;0.70;;;3.30;99.90;;;;;;5044503;28;20049;-62
2023/01/17 02:58:16;;;;;;;3.97;0.80;;;3.30;99.90;;;;;;5050619;28;20124;-64
2023/01/17 03:01:06;;;;;;;6.65;0.90;;;3.30;99.90;;;;;;5057042;28;20075;-62
2023/01/17 03:04:12;;;;;;;2.90;0.82;;;3.30;99.90;;;;;;5056791;28;20400;-62
2023/01/17 03:06:41;;;;;;;3.03;0.80;;;3.30;99.90;;;;;;5047754;28;20041;-61
2023/01/17 03:09:07;;;;;;;3.00;0.65;;;3.20;99.90;;;;;;5047172;28;20077;-61
2023/01/17 03:11:33;;;;;;;2.30;0.77;;;3.20;99.90;;;;;;5040873;28;20610;-63
2023/01/17 03:13:59;;;;;;;4.15;0.63;;;3.20;99.90;;;;;;5052781;28;20124;-61
2023/01/17 03:16:27;;;;;;;5.88;0.88;;;3.10;99.90;;;;;;5052262;28;20048;-62
2023/01/17 03:18:53;;;;;;;5.10;1.08;;;3.10;99.90;;;;;;5050692;28;20041;-61
2023/01/17 03:21:20;;;;;;;4.05;0.80;;;3.10;99.90;;;;;;5051213;28;20048;-61
2023/01/17 03:23:46;;;;;;;3.75;0.85;;;3.10;99.90;;;;;;5047893;28;20059;-64
2023/01/17 03:26:12;;;;;;;8.50;1.70;;;3.10;99.90;;;;;;5046995;28;20037;-63
2023/01/17 03:28:37;;;;;;;3.95;1.08;;;3.10;99.90;;;;;;5051191;28;20024;-60
2023/01/17 03:31:03;;;;;;;5.50;0.93;;;3.10;99.90;;;;;;5055531;28;20441;-61
2023/01/17 03:33:29;;;;;;;6.80;1.40;;;3.10;99.90;;;;;;5044772;28;20037;-60
2023/01/17 03:35:56;;;;;;;7.45;0.82;;;3.10;99.90;;;;;;5050003;28;20029;-61
2023/01/17 03:38:24;;;;;;;5.75;0.90;;;3.10;99.90;;;;;;5049479;28;20043;-62
2023/01/17 03:40:49;;;;;;;6.88;0.70;;;3.10;99.90;;;;;;5049302;28;20037;-60
2023/01/17 03:43:15;;;;;;;4.53;0.80;;;3.10;99.90;;;;;;5051020;28;20079;-61
2023/01/17 03:45:40;;;;;;;1.92;0.70;;;3.10;99.90;;;;;;5049585;28;20049;-62
2023/01/17 03:48:06;;;;;;;3.85;0.60;;;3.00;99.90;;;;;;5065580;28;20051;-63
2023/01/17 03:50:32;;;;;;;6.18;0.90;;;3.00;99.90;;;;;;5057969;28;20027;-61
2023/01/17 03:52:57;;;;;;;6.35;0.90;;;2.90;99.90;;;;;;5058117;28;20094;-61
2023/01/17 03:55:23;;;;;;;5.60;0.95;;;2.90;99.90;;;;;;5051497;28;20041;-62
2023/01/17 03:57:48;;;;;;;7.10;1.23;;;2.80;99.90;;;;;;5047904;28;20415;-63
2023/01/17 04:00:14;;;;;;;5.55;0.93;;;2.70;99.90;;;;;;5047490;28;20083;-62
2023/01/17 04:02:40;;;;;;;5.72;1.00;;;2.70;99.90;;;;;;5050927;28;20040;-61
2023/01/17 04:05:06;;;;;;;3.75;1.10;;;2.60;99.90;;;;;;5052218;28;20536;-63
2023/01/17 04:07:31;;;;;;;4.80;0.98;;;2.60;99.90;;;;;;5050654;28;20083;-61
2023/01/17 04:09:57;;;;;;;3.60;0.60;;;2.70;99.90;;;;;;5056982;28;20064;-65
2023/01/17 04:12:23;;;;;;;3.38;1.02;;;2.70;99.90;;;;;;5045281;28;20082;-62
2023/01/17 04:14:48;;;;;;;2.85;0.77;;;2.70;99.90;;;;;;5049160;28;20480;-64
2023/01/17 04:17:17;;;;;;;6.05;0.80;;;2.70;99.90;;;;;;5048029;28;20032;-61
2023/01/17 04:19:43;;;;;;;3.50;0.68;;;2.70;99.90;;;;;;5050862;28;20044;-61
2023/01/17 04:22:09;;;;;;;8.55;1.33;;;2.70;99.90;;;;;;5055675;28;20051;-62
2023/01/17 04:24:35;;;;;;;4.45;0.60;;;2.70;99.90;;;;;;5056881;28;20039;-60
2023/01/17 04:27:03;;;;;;;5.85;0.77;;;2.70;99.90;;;;;;5050381;28;20476;-60
2023/01/17 04:29:28;;;;;;;6.97;0.90;;;2.60;99.90;;;;;;5051750;28;20039;-62
2023/01/17 04:31:54;;;;;;;6.10;1.15;;;2.50;99.90;;;;;;5059724;28;20036;-62
2023/01/17 04:34:20;;;;;;;2.40;0.70;;;2.50;99.90;;;;;;5061118;28;20029;-63
2023/01/17 04:36:45;;;;;;;5.00;0.95;;;2.50;99.90;;;;;;5048586;28;20564;-61
2023/01/17 04:39:11;;;;;;;5.15;1.25;;;2.40;99.90;;;;;;5049116;28;20048;-62
2023/01/17 04:41:36;;;;;;;8.57;1.00;;;2.40;99.90;;;;;;5063541;28;20033;-61
2023/01/17 04:44:03;;;;;;;8.07;1.00;;;2.40;99.90;;;;;;5053906;28;20099;-62
2023/01/17 04:46:29;;;;;;;3.33;0.70;;;2.30;99.90;;;;;;5050146;28;20037;-61
2023/01/17 04:48:54;;;;;;;6.20;0.85;;;2.30;99.90;;;;;;5050503;28;20112;-62
2023/01/17 04:51:20;;;;;;;4.35;0.68;;;2.30;99.90;;;;;;5050044;28;20033;-60
2023/01/17 04:53:45;;;;;;;6.15;0.80;;;2.30;99.90;;;;;;5053442;28;20044;-60
2023/01/17 04:56:11;;;;;;;3.00;0.80;;;2.20;99.90;;;;;;5047631;28;20086;-61
2023/01/17 04:58:36;;;;;;;2.78;0.73;;;2.20;99.90;;;;;;5058482;28;20059;-60
2023/01/17 05:01:04;;;;;;;3.60;0.55;;;2.10;99.90;;;;;;5063302;28;20518;-63
2023/01/17 05:03:30;;;;;;;2.22;0.70;;;2.10;99.90;;;;;;5082801;28;20078;-61
2023/01/17 05:05:55;;;;;;;6.78;0.80;;;2.10;99.90;;;;;;5050504;28;20060;-62
2023/01/17 05:08:21;;;;;;;6.18;0.82;;;2.00;99.90;;;;;;5054976;28;20069;-61
2023/01/17 05:10:47;;;;;;;5.00;0.70;;;2.00;99.90;;;;;;5055862;28;20040;-61
2023/01/17 05:13:12;;;;;;;4.20;0.60;;;2.00;99.90;;;;;;5058385;28;20043;-62
2023/01/17 05:15:38;;;;;;;5.32;0.98;;;2.00;99.90;;;;;;5057618;28;20033;-62
2023/01/17 05:18:07;;;;;;;7.97;0.82;;;2.00;99.90;;;;;;5057316;28;20033;-62
2023/01/17 05:20:34;;;;;;;8.05;0.98;;;2.00;99.90;;;;;;5055044;28;20032;-61
2023/01/17 05:23:00;;;;;;;5.63;1.05;;;2.00;99.90;;;;;;5061663;28;20048;-62
2023/01/17 05:25:29;;;;;;;6.30;0.70;;;2.00;99.90;;;;;;5057038;28;20037;-62
2023/01/17 05:27:55;;;;;;;5.63;1.08;;;1.90;99.90;;;;;;5052073;28;20033;-62
2023/01/17 05:30:22;;;;;;;11.25;1.02;;;1.90;99.90;;;;;;5061644;28;20033;-61
2023/01/17 05:32:49;;;;;;;8.20;1.15;;;2.00;99.90;;;;;;5062845;28;20037;-60
2023/01/17 05:35:19;;;;;;;8.02;0.82;;;2.00;99.90;;;;;;5046620;28;20450;-62
2023/01/17 05:37:47;;;;;;;6.78;0.82;;;2.00;99.90;;;;;;5050312;28;20047;-61
2023/01/17 05:40:18;;;;;;;5.85;0.93;;;2.00;99.90;;;;;;5049714;28;20056;-60
2023/01/17 05:42:48;;;;;;;4.90;0.82;;;2.00;99.90;;;;;;5050425;28;20045;-63
2023/01/17 05:45:15;;;;;;;4.10;1.00;;;1.90;99.90;;;;;;5045054;28;20052;-62
2023/01/17 05:47:45;;;;;;;6.35;1.17;;;2.00;99.90;;;;;;5052157;28;20087;-60
2023/01/17 05:50:12;;;;;;;4.07;0.85;;;1.90;99.90;;;;;;5055946;28;20037;-60
2023/01/17 05:52:38;;;;;;;2.22;0.68;;;1.90;99.90;;;;;;5059330;28;20064;-62
2023/01/17 05:55:06;;;;;;;7.85;1.20;;;1.90;99.90;;;;;;5056366;28;20044;-60
2023/01/17 05:57:32;;;;;;;4.03;0.70;;;1.90;99.90;;;;;;5058863;28;20036;-60
2023/01/17 05:59:58;;;;;;;8.10;1.05;;;1.90;99.90;;;;;;5050320;28;20037;-60
2023/01/17 06:02:23;;;;;;;4.85;1.00;;;2.00;99.90;;;;;;5052753;28;20075;-60
2023/01/17 06:04:49;;;;;;;7.32;1.17;;;1.90;99.90;;;;;;5052692;28;20079;-62
2023/01/17 06:07:14;;;;;;;6.22;1.35;;;2.00;99.90;;;;;;5052404;28;20098;-62
2023/01/17 06:09:40;;;;;;;5.32;0.60;;;2.00;99.90;;;;;;5037433;28;20033;-61
2023/01/17 06:12:06;;;;;;;4.03;0.77;;;2.00;99.90;;;;;;5060741;28;20079;-61
2023/01/17 06:14:31;;;;;;;5.35;0.68;;;2.00;99.90;;;;;;5049651;28;20032;-61
2023/01/17 06:16:57;;;;;;;1.80;0.65;;;2.00;99.90;;;;;;5052394;28;20037;-60
2023/01/17 06:19:22;;;;;;;6.15;0.70;;;2.00;99.90;;;;;;5049109;28;20120;-60
2023/01/17 06:21:48;;;;;;;3.13;0.70;;;2.00;99.90;;;;;;5061361;28;20036;-60
2023/01/17 06:24:14;;;;;;;3.65;0.88;;;2.00;99.90;;;;;;5086354;28;20513;-61
2023/01/17 06:26:42;;;;;;;3.95;0.60;;;2.00;99.90;;;;;;5050364;28;20033;-61
2023/01/17 06:29:08;;;;;;;4.95;1.05;;;1.90;99.90;;;;;;5063369;28;20509;-61
2023/01/17 06:31:35;;;;;;;2.78;0.70;;;1.90;99.90;;;;;;5091101;28;20041;-61
2023/01/17 06:34:02;;;;;;;3.58;0.70;;;1.90;99.90;;;;;;5061469;28;20082;-61
2023/01/17 06:36:28;;;;;;;4.50;0.68;;;1.90;99.90;;;;;;5053349;28;20044;-61
2023/01/17 06:38:53;;;;;;;1.00;0.40;;;1.80;99.90;;;;;;5056246;28;20037;-61
2023/01/17 06:41:19;;;;;;;8.55;0.88;;;1.90;99.90;;;;;;5052074;28;20033;-61
2023/01/17 06:43:44;;;;;;;3.72;0.68;;;1.80;99.90;;;;;;5053679;28;20126;-60
2023/01/17 06:46:10;;;;;;;6.45;0.95;;;1.80;99.90;;;;;;5053939;28;20032;-60
2023/01/17 06:48:35;;;;;;;6.22;1.10;;;1.80;99.90;;;;;;5059270;28;20124;-61
2023/01/17 06:51:01;;;;;;;10.25;1.20;;;1.80;99.90;;;;;;5053353;28;20047;-60
2023/01/17 06:53:27;;;;;;;11.43;1.35;;;1.80;99.90;;;;;;5055123;28;20514;-60
2023/01/17 06:55:56;;;;;;;8.13;1.20;;;1.80;99.90;;;;;;5050673;28;20090;-61
2023/01/17 06:58:22;;;;;;;5.63;0.73;;;1.80;99.90;;;;;;5056971;28;20040;-63
2023/01/17 07:00:48;;;;;;;5.47;0.90;;;1.80;99.90;;;;;;5056928;28;20079;-62
2023/01/17 07:03:21;;;;;;;5.15;0.70;;;1.90;99.90;;;;;;5055937;28;20430;-62
2023/01/17 07:05:47;;;;;;;3.70;0.77;;;1.80;99.90;;;;;;5053854;28;20479;-60
2023/01/17 07:08:13;;;;;;;5.38;0.90;;;1.70;99.90;;;;;;5052955;28;20033;-61
2023/01/17 07:10:38;;;;;;;6.32;1.45;;;1.80;99.90;;;;;;5043099;28;20541;-61
2023/01/17 07:13:04;;;;;;;4.80;0.90;;;1.80;99.90;;;;;;5042340;28;20454;-61
2023/01/17 07:15:30;;;;;;;5.40;1.20;;;1.80;99.90;;;;;;5048825;28;20123;-61
2023/01/17 07:17:55;;;;;;;4.28;0.80;;;1.80;99.90;;;;;;5050175;28;20073;-61
2023/01/17 07:20:21;;;;;;;8.82;1.08;;;1.70;99.90;;;;;;5048213;28;20040;-63
2023/01/17 07:22:46;;;;;;;8.65;1.00;;;1.70;99.90;;;;;;5057985;28;20376;-61
2023/01/17 07:25:12;;;;;;;4.13;1.20;;;1.70;99.90;;;;;;5060042;28;20458;-60
2023/01/17 07:27:38;;;;;;;5.38;1.00;;;1.70;99.90;;;;;;5048986;28;20112;-61
2023/01/17 07:30:04;;;;;;;6.63;1.00;;;1.60;99.90;;;;;;5048583;28;20132;-61
2023/01/17 07:32:29;;;;;;;7.43;1.20;;;1.60;99.90;;;;;;5051218;28;20029;-61
2023/01/17 07:34:58;;;;;;;10.52;1.10;;;1.60;99.90;;;;;;5057903;28;20394;-61
2023/01/17 07:37:25;;;;;;;9.57;1.23;;;1.70;99.90;;;;;;5044311;28;20048;-61
2023/01/17 07:39:51;;;;;;;5.80;0.98;;;1.70;99.90;;;;;;5045219;28;20037;-60
2023/01/17 07:42:17;;;;;;;5.10;1.20;;;1.70;99.90;;;;;;5044798;28;20037;-61
2023/01/17 07:44:43;;;;;;;4.15;0.75;;;1.70;99.90;;;;;;5059164;28;20517;-61
2023/01/17 07:47:10;;;;;;;4.07;0.98;;;1.70;99.90;;;;;;5049741;28;20491;-62
2023/01/17 07:49:36;;;;;;;4.03;0.68;;;1.70;99.90;;;;;;5059664;28;20029;-62
2023/01/17 07:52:02;;;;;;;5.28;0.90;;;1.70;99.90;;;;;;5066883;28;20043;-61
2023/01/17 07:54:28;;;;;;;4.65;1.55;;;1.70;99.90;;;;;;5051301;28;20037;-61
2023/01/17 07:56:53;;;;;;;4.55;1.10;;;1.60;99.90;;;;;;5057042;28;20079;-63
2023/01/17 07:59:19;;;;;;;5.10;1.05;;;1.70;99.90;;;;;;5066032;28;20510;-60
2023/01/17 08:01:44;;;;;;;5.97;1.10;;;1.70;99.90;;;;;;5054521;28;20051;-61
2023/01/17 08:04:10;;;;;;;4.50;1.10;;;1.70;99.90;;;;;;5059776;28;20039;-61
2023/01/17 08:06:38;;;;;;;3.15;1.23;;;1.70;99.90;;;;;;5050536;28;20400;-62
2023/01/17 08:09:04;;;;;;;4.90;1.52;;;1.60;99.90;;;;;;5053273;28;20355;-61
2023/01/17 08:11:29;;;;;;;5.10;1.20;;;1.70;99.90;;;;;;5060112;28;20040;-61
2023/01/17 08:13:58;;;;;;;4.93;1.55;;;1.60;99.90;;;;;;5067680;28;20039;-62
2023/01/17 08:16:25;;;;;;;4.47;1.35;;;1.60;99.90;;;;;;5063171;28;20123;-61
2023/01/17 08:18:51;;;;;;;5.35;1.40;;;1.60;99.90;;;;;;5050104;28;20044;-61
2023/01/17 08:21:18;;;;;;;6.95;1.67;;;1.60;99.90;;;;;;5057615;28;20541;-60
2023/01/17 08:23:51;;;;;;;7.53;1.42;;;1.60;99.90;;;;;;5067135;28;20089;-61
2023/01/17 08:26:21;;;;;;;5.88;1.30;;;1.60;99.90;;;;;;5045470;28;20036;-61
2023/01/17 08:28:55;;;;;;;4.97;1.50;;;1.60;99.90;;;;;;5054081;28;20033;-62
2023/01/17 08:31:21;;;;;;;5.35;1.20;;;1.50;99.90;;;;;;5054089;28;20032;-61
2023/01/17 08:33:46;;;;;;;5.93;1.30;;;1.50;99.90;;;;;;5058785;28;20462;-61
2023/01/17 08:36:12;;;;;;;7.57;1.38;;;1.60;99.90;;;;;;5061833;28;20044;-60
2023/01/17 08:38:38;;;;;;;7.75;1.60;;;1.60;99.90;;;;;;5057929;28;20290;-60
2023/01/17 08:41:04;;;;;;;6.50;1.45;;;1.60;99.90;;;;;;5051036;28;20435;-60
2023/01/17 08:43:29;;;;;;;6.53;1.35;;;1.50;99.90;;;;;;5050428;28;20036;-61
2023/01/17 08:45:55;;;;;;;5.65;1.73;;;1.60;99.90;;;;;;5051035;28;20047;-61
2023/01/17 08:48:24;;;;;;;6.05;1.33;;;1.50;99.90;;;;;;5052677;28;21530;-63
2023/01/17 08:50:49;;;;;;;5.55;1.55;;;1.60;99.90;;;;;;5047320;28;20041;-61
2023/01/17 08:53:17;;;;;;;7.82;1.95;;;1.60;99.90;;;;;;5050683;28;20029;-62
2023/01/17 08:55:42;;;;;;;7.35;1.58;;;1.50;99.90;;;;;;5055990;28;20040;-61
2023/01/17 08:58:08;;;;;;;5.70;1.38;;;1.50;99.90;;;;;;5053570;28;20041;-58
2023/01/17 09:00:33;;;;;;;9.40;1.98;;;1.60;99.90;;;;;;5050579;28;20370;-60
2023/01/17 09:03:00;;;;;;;6.68;1.33;;;1.60;99.90;;;;;;5051537;28;20166;-63
2023/01/17 09:05:26;;;;;;;9.20;1.50;;;1.60;99.90;;;;;;5063473;28;20040;-62
2023/01/17 09:07:52;;;;;;;12.32;1.88;;;1.60;99.90;;;;;;5053232;28;20045;-61
2023/01/17 09:10:17;;;;;;;9.75;1.52;;;1.60;99.90;;;;;;5050723;28;20048;-64
2023/01/17 09:12:43;;;;;;;8.23;1.83;;;1.60;99.90;;;;;;5052641;28;20029;-61
2023/01/17 09:15:09;;;;;;;10.55;1.73;;;1.60;99.90;;;;;;5049618;28;20033;-64
2023/01/17 09:17:35;;;;;;;8.90;1.55;;;1.60;99.90;;;;;;5054105;28;20506;-60
2023/01/17 09:20:01;;;;;;;6.00;2.00;;;1.60;99.90;;;;;;5081537;28;20120;-61
2023/01/17 09:22:26;;;;;;;10.05;1.85;;;1.70;99.90;;;;;;5062163;28;20032;-61
2023/01/17 09:24:53;;;;;;;5.18;1.63;;;1.70;99.90;;;;;;5056300;28;20042;-62
2023/01/17 09:27:19;;;;;;;5.65;1.52;;;1.80;99.90;;;;;;5058253;28;20041;-61
2023/01/17 09:29:45;;;;;;;9.55;1.88;;;1.80;99.90;;;;;;5065897;28;20069;-61
2023/01/17 09:32:11;;;;;;;10.18;1.90;;;1.70;99.90;;;;;;5049231;28;20064;-61
2023/01/17 09:34:36;;;;;;;5.97;1.60;;;1.80;99.90;;;;;;5048119;28;20037;-61
2023/01/17 09:37:02;;;;;;;7.97;1.80;;;1.80;99.90;;;;;;5051537;28;20054;-60
2023/01/17 09:39:27;;;;;;;6.93;1.98;;;1.80;99.90;;;;;;5056858;28;20094;-60
2023/01/17 09:42:11;;;;;;;8.70;1.80;;;1.90;99.90;;;;;;5054748;28;20442;-61
2023/01/17 09:44:45;;;;;;;6.43;1.80;;;1.90;99.90;;;;;;5056536;28;20063;-60
2023/01/17 09:47:38;;;;;;;8.50;1.95;;;2.00;99.90;;;;;;5050300;28;20080;-61
2023/01/17 09:50:18;;;;;;;5.50;1.77;;;2.00;99.90;;;;;;5049056;28;20052;-61
2023/01/17 09:52:44;;;;;;;4.57;1.95;;;2.00;99.90;;;;;;5055454;28;20037;-60
2023/01/17 09:55:16;;;;;;;6.22;1.80;;;2.10;99.90;;;;;;5057389;28;20036;-61
2023/01/17 09:58:01;;;;;;;9.25;2.00;;;2.10;99.90;;;;;;5064681;28;20029;-60
2023/01/17 10:00:41;;;;;;;5.18;1.58;;;2.10;99.90;;;;;;5047568;28;20052;-63
2023/01/17 10:03:42;;;;;;;10.98;1.70;;;2.20;99.90;;;;;;5048577;28;20040;-61
2023/01/17 10:06:23;;;;;;;6.80;2.00;;;2.20;99.90;;;;;;5055317;28;20037;-60
2023/01/17 10:09:06;;;;;;;8.07;2.00;;;2.20;99.90;;;;;;5054725;28;20041;-61
2023/01/17 10:12:01;;;;;;;6.55;1.73;;;2.20;99.90;;;;;;5058358;28;20033;-60
2023/01/17 10:14:45;;;;;;;7.15;1.70;;;2.30;99.90;;;;;;5049392;28;20198;-59
2023/01/17 10:17:36;;;;;;;7.97;1.77;;;2.30;99.90;;;;;;5049246;28;20441;-60
2023/01/17 10:20:40;;;;;;;6.30;2.00;;;2.40;99.90;;;;;;5058070;28;20044;-62
2023/01/17 10:23:16;;;;;;;8.07;1.92;;;2.40;99.90;;;;;;5059391;28;20052;-63
2023/01/17 10:25:51;;;;;;;6.38;1.92;;;2.40;99.90;;;;;;5052315;28;20130;-60
2023/01/17 10:28:34;;;;;;;5.47;1.63;;;2.50;99.90;;;;;;5044291;28;20036;-60
2023/01/17 10:31:11;;;;;;;9.13;1.90;;;2.50;99.90;;;;;;5046954;28;20040;-61
2023/01/17 10:33:39;;;;;;;7.70;2.20;;;2.60;99.90;;;;;;5049552;28;20044;-59
2023/01/17 10:36:22;;;;;;;5.28;1.65;;;2.60;99.90;;;;;;5056684;28;20040;-60
2023/01/17 10:39:01;;;;;;;7.88;2.08;;;2.60;99.90;;;;;;5046680;28;20042;-63
2023/01/17 10:41:33;;;;;;;9.27;2.08;;;2.60;99.90;;;;;;5052013;28;20032;-60
2023/01/17 10:44:03;;;;;;;8.13;1.92;;;2.70;99.90;;;;;;5058200;28;20556;-60
2023/01/17 10:46:40;;;;;;;5.47;1.90;;;2.70;99.90;;;;;;5056316;28;20033;-60
2023/01/17 10:49:17;;;;;;;5.68;1.83;;;2.70;99.90;;;;;;5052242;28;20044;-60
2023/01/17 10:52:01;;;;;;;7.60;1.60;;;2.80;99.90;;;;;;5056518;28;20485;-60
2023/01/17 10:54:52;;;;;;;6.68;1.80;;;2.80;99.90;;;;;;5052624;28;20041;-63
2023/01/17 10:57:21;;;;;;;7.40;1.80;;;2.90;99.90;;;;;;5053798;28;20564;-60
2023/01/17 10:59:48;;;;;;;5.72;1.92;;;2.90;99.90;;;;;;5052444;28;20129;-60
2023/01/17 11:02:24;;;;;;;6.10;1.90;;;3.00;99.90;;;;;;5055690;28;20384;-60
2023/01/17 11:04:53;;;;;;;7.63;1.92;;;3.00;99.90;;;;;;5052226;28;20033;-61
2023/01/17 11:07:24;;;;;;;5.43;1.63;;;3.10;99.90;;;;;;5069962;28;20041;-62
2023/01/17 11:09:52;;;;;;;7.25;2.17;;;3.10;99.90;;;;;;5052532;28;20037;-60
2023/01/17 11:12:47;;;;;;;7.10;1.90;;;3.10;99.90;;;;;;5057787;28;20037;-60
2023/01/17 11:15:14;;;;;;;5.03;1.90;;;3.20;99.90;;;;;;5041653;28;20128;-62
2023/01/17 11:17:59;;;;;;;7.15;1.90;;;3.20;99.90;;;;;;5051732;28;20140;-61
2023/01/17 11:20:41;;;;;;;8.73;2.17;;;3.20;99.90;;;;;;5045980;28;20188;-61
2023/01/17 11:23:19;;;;;;;11.52;2.13;;;3.20;99.90;;;;;;5057562;28;20495;-64
2023/01/17 11:25:59;;;;;;;9.07;2.45;;;3.20;99.90;;;;;;5056664;28;20403;-63
2023/01/17 11:28:29;;;;;;;6.28;2.00;;;3.20;99.90;;;;;;5052383;28;20391;-61
2023/01/17 11:30:59;;;;;;;8.43;2.33;;;3.30;99.90;;;;;;5048643;28;20029;-61
2023/01/17 11:33:55;;;;;;;5.43;2.15;;;3.30;99.90;;;;;;5052026;28;20040;-62
2023/01/17 11:36:26;;;;;;;8.93;2.22;;;3.40;99.90;;;;;;5054094;28;20048;-60
2023/01/17 11:38:56;;;;;;;6.18;2.15;;;3.40;99.90;;;;;;5051827;28;20037;-61
2023/01/17 11:41:23;;;;;;;6.47;1.80;;;3.40;99.90;;;;;;5052336;28;20033;-62
2023/01/17 11:43:52;;;;;;;5.68;1.90;;;3.50;99.90;;;;;;5051625;28;20391;-62
2023/01/17 11:46:19;;;;;;;4.82;1.75;;;3.50;99.90;;;;;;5035980;28;20399;-63
2023/01/17 11:48:53;;;;;;;4.50;1.77;;;3.50;99.90;;;;;;5067686;28;20495;-62
2023/01/17 11:51:24;;;;;;;4.95;1.40;;;3.60;99.90;;;;;;5050512;28;20029;-62
2023/01/17 11:53:52;;;;;;;4.50;1.80;;;3.60;99.90;;;;;;5051670;28;20033;-62
2023/01/17 11:56:27;;;;;;;4.93;2.17;;;3.70;99.90;;;;;;5051506;28;20044;-61
2023/01/17 11:59:27;;;;;;;6.25;2.10;;;3.80;99.90;;;;;;5049939;28;20045;-62
2023/01/17 12:02:30;;;;;;;5.47;1.80;;;3.90;99.90;;;;;;5059266;28;20242;-61
2023/01/17 12:04:56;;;;;;;8.13;2.17;;;3.90;99.90;;;;;;5057442;28;20499;-63
2023/01/17 12:07:39;;;;;;;6.40;1.85;;;4.00;99.90;;;;;;5050785;28;20047;-63
2023/01/17 12:10:28;;;;;;;6.13;1.88;;;4.00;99.90;;;;;;5051354;28;20494;-62
2023/01/17 12:19:09;;;;;;;;;;;4.20;99.90;;;;;;5051978;28;20069;-62
2023/01/17 12:21:54;;;;;;;3.92;1.67;;;4.20;99.90;;;;;;5045963;28;19963;-62
2023/01/17 12:24:35;;;;;;;6.50;2.10;;;4.30;99.90;;;;;;5053197;28;20041;-63
2023/01/17 12:27:23;;;;;;;6.25;2.05;;;4.30;99.90;;;;;;5080635;28;20180;-62
2023/01/17 12:30:21;;;;;;;7.22;2.22;;;4.30;99.90;;;;;;5050432;28;20029;-61
2023/01/17 12:33:15;;;;;;;5.65;2.00;;;4.40;99.90;;;;;;5050651;28;20390;-63
2023/01/17 12:35:55;;;;;;;9.00;2.35;;;4.40;99.90;;;;;;5050340;28;20554;-63
2023/01/17 12:38:39;;;;;;;5.28;1.85;;;4.40;99.90;;;;;;5048939;28;20036;-62
2023/01/17 12:41:09;;;;;;;5.45;2.30;;;4.40;99.90;;;;;;5050547;28;20519;-63
2023/01/17 12:43:42;;;;;;;8.50;2.10;;;4.40;99.90;;;;;;5050521;28;20439;-63
2023/01/17 12:46:19;;;;;;;5.28;1.83;;;4.50;99.90;;;;;;5051404;28;21365;-62
2023/01/17 12:48:49;;;;;;;5.72;1.88;;;4.50;99.90;;;;;;5050138;28;20025;-63
2023/01/17 12:51:28;;;;;;;5.65;1.67;;;4.50;99.90;;;;;;5042457;28;20036;-63
2023/01/17 12:54:14;;;;;;;5.45;2.05;;;4.60;99.90;;;;;;5055453;28;20032;-61
2023/01/17 12:56:43;;;;;;;7.38;1.90;;;4.70;99.90;;;;;;5081343;28;20041;-62
2023/01/17 12:59:22;;;;;;;5.80;2.00;;;4.70;99.90;;;;;;5076227;28;20071;-60
2023/01/17 13:02:00;;;;;;;5.22;1.90;;;4.80;99.90;;;;;;5052443;28;20044;-60
2023/01/17 13:04:35;;;;;;;5.50;1.80;;;4.90;99.90;;;;;;5055247;28;20147;-61
2023/01/17 13:07:28;;;;;;;7.47;1.77;;;5.00;99.90;;;;;;5058593;28;20036;-61
2023/01/17 13:10:19;;;;;;;4.25;1.50;;;5.20;99.90;;;;;;5047816;28;20514;-62
2023/01/17 13:12:47;;;;;;;7.65;1.65;;;5.30;99.90;;;;;;5049499;28;20040;-62
2023/01/17 13:15:17;;;;;;;3.05;1.35;;;5.40;99.90;;;;;;5049755;28;20127;-62
2023/01/17 13:18:05;;;;;;;8.13;1.92;;;5.60;99.90;;;;;;5058350;28;20048;-62
2023/01/17 13:20:49;;;;;;;5.10;1.65;;;5.60;99.90;;;;;;5075260;28;20041;-62
2023/01/17 13:23:54;;;;;;;4.25;1.25;;;5.60;99.90;;;;;;5049740;28;20076;-63
2023/01/17 13:26:35;;;;;;;5.78;1.58;;;5.50;99.90;;;;;;5055708;28;20056;-60
2023/01/17 13:29:43;;;;;;;2.67;1.25;;;5.70;99.90;;;;;;5063484;28;20041;-63
2023/01/17 13:32:35;;;;;;;3.17;1.25;;;5.70;99.90;;;;;;5068404;28;20553;-61
2023/01/17 13:35:32;;;;;;;4.55;1.48;;;5.80;99.90;;;;;;5059201;28;20045;-64
2023/01/17 13:38:09;;;;;;;6.32;1.60;;;5.90;99.90;;;;;;5061284;28;20048;-62
2023/01/17 13:40:54;;;;;;;6.35;1.67;;;6.10;99.90;;;;;;5050678;28;20060;-62
2023/01/17 13:43:27;;;;;;;6.53;1.52;;;6.20;99.90;;;;;;5056068;28;20090;-62
2023/01/17 13:45:58;;;;;;;7.75;1.60;;;6.50;99.90;;;;;;5049784;28;20057;-62
2023/01/17 13:48:26;;;;;;;4.63;1.15;;;6.50;99.90;;;;;;5061123;28;20083;-63
2023/01/17 13:50:56;;;;;;;7.78;1.55;;;6.60;99.90;;;;;;5057747;28;20476;-62
2023/01/17 13:53:27;;;;;;;5.53;1.50;;;6.50;99.90;;;;;;5048180;28;20407;-63
2023/01/17 13:56:31;;;;;;;6.47;1.60;;;6.20;99.90;;;;;;5054023;28;20048;-62
2023/01/17 13:59:01;;;;;;;4.55;1.20;;;5.80;99.90;;;;;;5041103;28;20319;-63
2023/01/17 14:01:41;;;;;;;4.75;1.15;;;5.70;99.90;;;;;;5078035;28;20160;-62
2023/01/17 14:04:07;;;;;;;3.42;1.08;;;5.80;99.90;;;;;;5041173;28;20056;-62
2023/01/17 14:06:37;;;;;;;2.65;1.35;;;6.00;99.90;;;;;;5045963;28;20052;-62
2023/01/17 14:09:15;;;;;;;3.65;1.10;;;5.90;99.90;;;;;;5045243;28;20491;-62
2023/01/17 14:12:02;;;;;;;2.55;1.13;;;6.00;99.90;;;;;;5049421;28;20045;-62
2023/01/17 14:14:40;;;;;;;8.68;1.88;;;6.40;99.90;;;;;;5045224;28;20086;-63
2023/01/17 14:17:15;;;;;;;5.85;1.33;;;6.90;99.90;;;;;;5055690;28;20126;-62
2023/01/17 14:19:46;;;;;;;5.32;1.48;;;7.20;99.90;;;;;;5042281;28;20423;-62
2023/01/17 14:22:26;;;;;;;4.53;1.42;;;7.40;99.90;;;;;;5043297;28;20037;-63
2023/01/17 14:24:59;;;;;;;3.60;1.30;;;7.30;99.90;;;;;;5046501;28;20043;-63
2023/01/17 14:27:27;;;;;;;5.57;1.38;;;7.20;99.90;;;;;;5054831;28;20055;-62
2023/01/17 14:30:00;;;;;;;3.78;1.27;;;6.90;99.90;;;;;;5052243;28;20060;-63
2023/01/17 14:32:36;;;;;;;3.90;1.17;;;6.60;99.90;;;;;;5054286;28;20087;-62
2023/01/17 14:35:03;;;;;;;3.83;1.30;;;6.20;99.90;;;;;;5056814;28;20059;-63
2023/01/17 14:37:49;;;;;;;2.90;1.30;;;5.80;99.90;;;;;;5048109;28;20090;-63
2023/01/17 14:40:18;;;;;;;4.18;1.40;;;5.40;99.90;;;;;;5052305;28;20037;-63
2023/01/17 14:42:46;;;;;;;4.40;1.40;;;5.10;99.90;;;;;;5054142;28;20075;-64
2023/01/17 14:45:17;;;;;;;3.92;1.20;;;4.80;99.90;;;;;;5052202;28;20078;-63
2023/01/17 14:47:43;;;;;;;6.15;1.60;;;4.70;99.90;;;;;;5049864;28;20088;-63
2023/01/17 14:50:25;;;;;;;5.38;1.50;;;4.60;99.90;;;;;;5054448;28;20076;-63